Hundvaag 1 weather for Sep 1994
Month no. 87
Obs.
Da.
Temp. Dew Point Precip. Wind
Speed
Wind gusts Cloud cover Press. Humidity Wind dir. Sunny OPT
01.09.1994 9,6   0,0             1  
02.09.1994 12,9   0,0                
03.09.1994 14,7   13,2             1  
04.09.1994 14,6   1,4                
05.09.1994 11,7   12,2                
06.09.1994 10,9   9,0             1  
07.09.1994 11,2   0,7             1  
08.09.1994 11,0   2,0             1  
09.09.1994 15,0   0,2                
10.09.1994 12,0   16,0             1  
11.09.1994 12,5   5,5             1  
12.09.1994 8,7   4,4             1  
13.09.1994 11,9   3,3             1  
14.09.1994 9,9   0,9             1  
15.09.1994 12,5   0,0                
16.09.1994 11,7   1,2                
17.09.1994 10,3   0,8             1  
18.09.1994 10,2   0,0             1  
19.09.1994 10,1   0,0                
20.09.1994 10,3   0,0             1  
21.09.1994 7,7   0,0     10       1  
22.09.1994 10,0   0,0     1          
23.09.1994 11,7   0,0     0          
24.09.1994 10,9   0,5     0       1  
25.09.1994 7,3   1,2     8       1  
26.09.1994 7,8   0,0     0          
27.09.1994 9,9   20,0     0          
28.09.1994 6,7   6,7     0          
29.09.1994 7,2   8,2     2          
30.09.1994 6,7   1,3     0          
                       
Avrg/Sum 10,6   108,7     2,1       16